createdAt,value
2018-08-25T00:00:48.244Z,10.55
2018-08-25T00:03:17.264Z,11.00
2018-08-25T00:05:46.200Z,12.00
2018-08-25T00:08:15.211Z,11.05
2018-08-25T00:10:44.184Z,10.78
2018-08-25T00:13:13.128Z,10.50
2018-08-25T00:15:42.181Z,10.78
2018-08-25T00:18:11.432Z,10.57
2018-08-25T00:20:40.821Z,12.03
2018-08-25T00:23:09.900Z,10.58
2018-08-25T00:25:38.888Z,11.60
2018-08-25T00:28:07.832Z,11.50
2018-08-25T00:30:42.368Z,12.18
2018-08-25T00:33:11.317Z,13.48
2018-08-25T00:35:40.253Z,14.40
2018-08-25T00:38:09.293Z,14.18
2018-08-25T00:40:38.296Z,11.93
2018-08-25T00:43:07.377Z,13.03
2018-08-25T00:45:36.356Z,14.50
2018-08-25T00:48:05.273Z,14.40
2018-08-25T00:50:34.185Z,13.75
2018-08-25T00:53:03.149Z,13.15
2018-08-25T00:55:32.091Z,14.13
2018-08-25T00:58:23.432Z,12.50
2018-08-25T01:00:52.367Z,13.30
2018-08-25T01:03:21.313Z,13.35
2018-08-25T01:05:50.312Z,13.70
2018-08-25T01:08:19.252Z,12.63
2018-08-25T01:10:48.216Z,13.28
2018-08-25T01:13:17.204Z,12.70
2018-08-25T01:15:46.215Z,11.53
2018-08-25T01:18:15.157Z,12.20
2018-08-25T01:20:44.179Z,14.03
2018-08-25T01:23:13.122Z,12.40
2018-08-25T01:25:42.061Z,13.70
2018-08-25T01:28:11.038Z,12.58
2018-08-25T01:30:39.984Z,12.33
2018-08-25T01:33:08.936Z,11.80
2018-08-25T01:35:37.960Z,11.57
2018-08-25T01:38:07.134Z,12.70
2018-08-25T01:40:36.085Z,11.70
2018-08-25T01:43:05.036Z,11.95
2018-08-25T01:45:33.957Z,11.90
2018-08-25T01:48:02.878Z,9.90
2018-08-25T01:50:32.154Z,10.53
2018-08-25T01:53:01.138Z,10.20
2018-08-25T01:55:30.162Z,10.72
2018-08-25T01:57:59.177Z,9.70
2018-08-25T02:00:28.113Z,9.73
2018-08-25T02:02:57.324Z,10.60
2018-08-25T02:05:29.765Z,10.55
2018-08-25T02:08:01.129Z,8.83
2018-08-25T02:10:30.211Z,10.20
2018-08-25T02:12:59.367Z,10.77
2018-08-25T02:15:28.491Z,11.93
2018-08-25T02:17:57.540Z,8.88
2018-08-25T02:20:26.669Z,9.30
2018-08-25T02:22:55.600Z,9.33
2018-08-25T02:25:24.645Z,9.35
2018-08-25T02:27:53.705Z,12.70
2018-08-25T02:30:22.681Z,10.05
2018-08-25T02:32:51.706Z,9.43
2018-08-25T02:35:20.637Z,9.00
2018-08-25T02:40:43.958Z,9.35
2018-08-25T02:43:12.914Z,8.95
2018-08-25T02:45:41.957Z,8.85
2018-08-25T02:48:10.982Z,8.98
2018-08-25T02:50:39.929Z,9.13
2018-08-25T02:53:08.873Z,8.95
2018-08-25T02:55:37.938Z,8.60
2018-08-25T02:58:06.873Z,9.60
2018-08-25T03:00:35.801Z,8.80
2018-08-25T03:03:04.747Z,8.93
2018-08-25T03:05:33.671Z,8.50
2018-08-25T03:08:02.613Z,8.37
2018-08-25T03:10:31.698Z,8.93
2018-08-25T03:13:00.617Z,8.60
2018-08-25T03:15:29.992Z,9.15
2018-08-25T03:17:58.993Z,8.48
2018-08-25T03:20:27.918Z,9.10
2018-08-25T03:22:56.962Z,8.68
2018-08-25T03:25:25.964Z,9.20
2018-08-25T03:27:54.893Z,8.93
2018-08-25T03:30:23.925Z,8.30
2018-08-25T03:32:52.920Z,9.78
2018-08-25T03:35:21.889Z,9.20
2018-08-25T03:37:50.837Z,11.10
2018-08-25T03:40:19.793Z,10.38
2018-08-25T03:42:48.803Z,9.07
2018-08-25T03:45:17.969Z,11.70
2018-08-25T03:47:47.170Z,11.68
2018-08-25T03:50:16.083Z,10.82
2018-08-25T03:52:45.262Z,13.55
2018-08-25T03:55:14.278Z,16.00
2018-08-25T03:57:43.199Z,13.33
2018-08-25T04:00:24.776Z,11.10
2018-08-25T04:02:53.965Z,9.28
2018-08-25T04:05:23.151Z,9.30
2018-08-25T04:07:52.348Z,8.73
2018-08-25T04:10:21.525Z,8.88
2018-08-25T04:12:50.713Z,9.33
2018-08-25T04:15:19.913Z,9.87
2018-08-25T04:17:49.082Z,10.60
2018-08-25T04:20:18.236Z,8.90
2018-08-25T04:22:47.534Z,9.80
2018-08-25T04:25:16.730Z,8.90
2018-08-25T04:30:46.597Z,8.85
2018-08-25T04:33:15.809Z,9.18
2018-08-25T04:35:44.984Z,9.20
2018-08-25T04:38:14.203Z,9.00
2018-08-25T04:40:43.370Z,9.15
2018-08-25T04:43:12.856Z,8.90
2018-08-25T04:45:42.047Z,9.23
2018-08-25T04:48:11.217Z,8.98
2018-08-25T04:50:40.417Z,8.18
2018-08-25T04:53:09.639Z,9.95
2018-08-25T04:58:39.533Z,9.43
2018-08-25T05:01:08.771Z,9.43
2018-08-25T05:03:37.696Z,9.00
2018-08-25T05:06:06.761Z,9.15
2018-08-25T05:08:35.725Z,9.20
2018-08-25T05:11:04.924Z,8.70
2018-08-25T05:13:34.142Z,9.28
2018-08-25T05:16:03.299Z,9.20
2018-08-25T05:18:32.296Z,10.35
2018-08-25T05:21:01.490Z,10.98
2018-08-25T05:26:24.178Z,8.85
2018-08-25T05:28:53.351Z,8.50
2018-08-25T05:31:22.533Z,9.78
2018-08-25T05:33:51.753Z,9.40
2018-08-25T05:36:20.917Z,9.93
2018-08-25T05:41:21.997Z,9.40
2018-08-25T05:43:51.200Z,9.58
2018-08-25T05:46:20.134Z,9.53
2018-08-25T05:48:49.193Z,8.90
2018-08-25T05:51:26.003Z,9.80
2018-08-25T05:53:55.009Z,9.85
2018-08-25T05:56:23.953Z,9.40
2018-08-25T05:58:52.892Z,9.60
2018-08-25T06:01:21.900Z,9.70
2018-08-25T06:03:51.257Z,9.50
2018-08-25T06:06:26.074Z,11.75
2018-08-25T06:08:55.003Z,12.25
2018-08-25T06:11:23.935Z,11.08
2018-08-25T06:13:52.981Z,9.90
2018-08-25T06:16:21.941Z,9.58
2018-08-25T06:18:50.877Z,10.58
2018-08-25T06:21:19.885Z,9.45
2018-08-25T06:23:48.802Z,8.70
2018-08-25T06:26:17.800Z,9.70
2018-08-25T06:28:46.757Z,9.18
2018-08-25T06:31:15.871Z,10.03
2018-08-25T06:33:44.796Z,9.83
2018-08-25T06:36:13.794Z,9.30
2018-08-25T06:38:42.713Z,8.98
2018-08-25T06:41:11.641Z,9.38
2018-08-25T06:43:40.957Z,9.53
2018-08-25T06:46:10.786Z,9.30
2018-08-25T06:48:41.127Z,8.70
2018-08-25T06:51:10.294Z,9.48
2018-08-25T06:53:39.458Z,8.60
2018-08-25T06:56:08.751Z,9.58
2018-08-25T06:58:37.923Z,9.60
2018-08-25T07:01:26.456Z,10.30
2018-08-25T07:03:55.698Z,8.20
2018-08-25T07:06:24.937Z,10.88
2018-08-25T07:08:54.206Z,12.13
2018-08-25T07:11:23.408Z,12.95
2018-08-25T07:13:52.579Z,9.30
2018-08-25T07:16:21.804Z,13.43
2018-08-25T07:18:51.287Z,10.15
2018-08-25T07:21:20.499Z,10.23
2018-08-25T07:23:49.730Z,10.90
2018-08-25T07:26:18.906Z,9.95
2018-08-25T07:28:49.185Z,13.95
2018-08-25T07:31:25.981Z,10.28
2018-08-25T07:34:24.009Z,9.57
2018-08-25T07:42:44.253Z,14.50
2018-08-25T07:45:13.498Z,10.00
2018-08-25T07:47:42.745Z,12.00
2018-08-25T07:50:11.948Z,10.55
2018-08-25T07:52:41.121Z,9.80
2018-08-25T07:55:10.397Z,9.23
2018-08-25T07:57:41.806Z,11.13
2018-08-25T08:00:11.006Z,13.95
2018-08-25T08:02:40.228Z,10.72
2018-08-25T08:05:09.490Z,11.05
2018-08-25T08:07:38.780Z,9.80
2018-08-25T08:10:25.046Z,9.60
2018-08-25T08:14:30.609Z,12.33
2018-08-25T08:17:25.069Z,9.90
2018-08-25T08:20:23.762Z,9.50
2018-08-25T08:26:23.698Z,9.20
2018-08-25T08:31:27.061Z,10.20
2018-08-25T08:36:49.745Z,9.50
2018-08-25T08:39:26.002Z,9.30
2018-08-25T08:42:24.078Z,10.53
2018-08-25T08:49:07.027Z,9.40
2018-08-25T08:57:39.184Z,9.35
2018-08-25T09:00:08.606Z,10.10
2018-08-25T09:02:37.811Z,9.73
2018-08-25T09:05:07.419Z,10.10
2018-08-25T09:07:36.649Z,13.60
2018-08-25T09:10:05.938Z,10.00
2018-08-25T09:12:35.334Z,11.95
2018-08-25T09:15:04.851Z,12.00
2018-08-25T09:17:34.080Z,12.80
2018-08-25T09:20:03.349Z,11.12
2018-08-25T09:22:32.536Z,11.03
2018-08-25T09:25:01.711Z,10.85
2018-08-25T09:27:31.403Z,9.43
2018-08-25T09:30:00.460Z,12.47
2018-08-25T09:32:29.492Z,11.18
2018-08-25T09:35:24.154Z,12.43
2018-08-25T09:37:53.304Z,9.95
2018-08-25T09:40:22.537Z,9.30
2018-08-25T09:42:51.747Z,9.48
2018-08-25T09:45:21.002Z,10.00
2018-08-25T09:47:50.191Z,9.13
2018-08-25T09:50:20.505Z,8.85
2018-08-25T09:52:49.689Z,9.58
2018-08-25T09:55:18.872Z,9.10
2018-08-25T09:57:48.453Z,8.98
2018-08-25T10:00:17.499Z,8.50
2018-08-25T10:05:40.077Z,9.15
2018-08-25T10:08:09.162Z,8.58
2018-08-25T10:10:38.125Z,10.13
2018-08-25T10:13:07.224Z,10.10
2018-08-25T10:15:36.199Z,9.83
2018-08-25T10:18:05.332Z,8.43
2018-08-25T10:20:34.396Z,9.50
2018-08-25T10:23:03.412Z,8.77
2018-08-25T10:25:32.426Z,10.87
2018-08-25T10:28:01.421Z,10.10
2018-08-25T10:30:30.370Z,10.90
2018-08-25T10:36:23.389Z,9.50
2018-08-25T10:38:52.852Z,8.40
2018-08-25T10:41:27.697Z,10.30
2018-08-25T10:46:50.492Z,8.50
2018-08-25T10:49:25.845Z,8.00
2018-08-25T10:54:48.757Z,9.60
2018-08-25T11:00:24.856Z,9.03
2018-08-25T11:02:53.781Z,8.75
2018-08-25T11:05:26.544Z,10.38
2018-08-25T11:10:49.696Z,11.53
2018-08-25T11:13:24.984Z,11.00
2018-08-25T11:18:47.758Z,11.12
2018-08-25T11:21:26.279Z,11.97
2018-08-25T11:32:36.474Z,9.68
2018-08-25T11:35:06.458Z,9.98
2018-08-25T11:37:35.596Z,11.00
2018-08-25T11:40:04.625Z,8.28
2018-08-25T11:42:33.620Z,8.50
2018-08-25T11:45:02.651Z,9.18
2018-08-25T11:47:31.605Z,9.13
2018-08-25T11:50:01.437Z,10.60
2018-08-25T11:52:30.362Z,8.55
2018-08-25T11:54:59.384Z,11.03
2018-08-25T11:57:28.428Z,9.83
2018-08-25T12:02:51.916Z,8.60
2018-08-25T12:05:21.112Z,8.50
2018-08-25T12:07:50.042Z,8.40
2018-08-25T12:10:19.013Z,9.25
2018-08-25T12:12:48.632Z,9.40
2018-08-25T12:15:17.753Z,9.78
2018-08-25T12:17:46.704Z,11.17
2018-08-25T12:20:15.656Z,8.60
2018-08-25T12:25:37.837Z,8.60
2018-08-25T12:28:06.812Z,9.10
2018-08-25T12:30:35.819Z,8.85
2018-08-25T12:33:05.260Z,8.25
2018-08-25T12:35:34.250Z,9.35
2018-08-25T12:38:03.177Z,9.40
2018-08-25T12:40:32.407Z,8.60
2018-08-25T12:43:01.395Z,10.50
2018-08-25T12:45:30.360Z,9.00
2018-08-25T12:47:59.321Z,9.60
2018-08-25T12:54:33.705Z,9.80
2018-08-25T12:57:02.796Z,9.05
2018-08-25T12:59:31.826Z,9.83
2018-08-25T13:04:54.317Z,10.40
2018-08-25T13:07:23.295Z,10.40
2018-08-25T13:09:52.406Z,10.60
2018-08-25T13:12:21.374Z,8.80
2018-08-25T13:14:50.360Z,8.30
2018-08-25T13:17:19.352Z,9.70
2018-08-25T13:19:48.622Z,8.67
2018-08-25T13:22:17.587Z,11.48
2018-08-25T13:24:46.577Z,11.10
2018-08-25T13:27:15.791Z,8.65
2018-08-25T13:29:44.973Z,11.80
2018-08-25T13:32:27.038Z,9.70
2018-08-25T13:34:56.114Z,10.20
2018-08-25T13:37:25.037Z,9.33
2018-08-25T13:39:54.258Z,8.98
2018-08-25T13:42:23.489Z,9.97
2018-08-25T13:44:52.879Z,9.15
2018-08-25T13:47:28.573Z,7.83
2018-08-25T13:49:57.956Z,8.83
2018-08-25T13:52:27.394Z,8.15
2018-08-25T13:54:56.716Z,8.85
2018-08-25T13:57:25.897Z,8.53
2018-08-25T13:59:55.137Z,7.70
2018-08-25T14:02:27.426Z,8.30
2018-08-25T14:04:56.726Z,7.97
2018-08-25T14:07:25.700Z,7.78
2018-08-25T14:09:54.734Z,8.38
2018-08-25T14:12:23.656Z,9.00
2018-08-25T14:17:53.268Z,8.00
2018-08-25T14:20:22.513Z,8.83
2018-08-25T14:22:51.728Z,8.58
2018-08-25T14:25:20.968Z,8.63
2018-08-25T14:27:50.478Z,8.10
2018-08-25T14:30:19.672Z,8.10
2018-08-25T14:32:48.881Z,7.47
2018-08-25T14:35:18.178Z,7.20
2018-08-25T14:37:47.331Z,7.40
2018-08-25T14:40:26.321Z,7.55
2018-08-25T14:43:24.509Z,6.65
2018-08-25T14:45:53.878Z,6.10
2018-08-25T14:48:23.206Z,6.40
2018-08-25T14:50:52.421Z,7.10
2018-08-25T14:53:21.598Z,6.35
2018-08-25T14:55:50.796Z,6.30
2018-08-25T14:58:19.990Z,6.45
2018-08-25T15:00:49.278Z,6.00
2018-08-25T15:03:18.515Z,5.87
2018-08-25T15:05:47.816Z,6.10
2018-08-25T15:08:17.014Z,6.62
2018-08-25T15:13:46.517Z,5.93
2018-08-25T15:16:15.741Z,7.00
2018-08-25T15:18:45.026Z,5.87
2018-08-25T15:21:14.224Z,5.67
2018-08-25T15:26:44.212Z,6.75
2018-08-25T15:29:13.458Z,6.40
2018-08-25T15:31:42.708Z,6.65
2018-08-25T15:34:11.927Z,6.28
2018-08-25T15:36:41.094Z,6.03
2018-08-25T15:39:13.510Z,6.83
2018-08-25T15:41:43.013Z,6.47
2018-08-25T15:44:12.494Z,6.80
2018-08-25T15:46:41.500Z,6.00
2018-08-25T15:49:10.678Z,6.17
2018-08-25T15:51:39.974Z,6.03
2018-08-25T15:54:09.948Z,6.53
2018-08-25T15:59:39.737Z,6.10
2018-08-25T16:05:24.803Z,6.20
2018-08-25T16:17:24.187Z,5.78
2018-08-25T16:35:24.128Z,5.67
2018-08-25T16:59:27.429Z,4.70
2018-08-25T17:05:24.623Z,4.70
2018-08-25T17:11:23.685Z,5.40
2018-08-25T17:23:23.896Z,5.40
2018-08-25T17:35:23.633Z,4.87
2018-08-25T17:40:52.818Z,4.95
2018-08-25T17:43:28.223Z,5.25
2018-08-25T17:46:24.188Z,4.75
2018-08-25T17:48:53.374Z,4.90
2018-08-25T17:51:22.602Z,4.58
2018-08-25T17:53:52.145Z,5.10
2018-08-25T17:56:21.380Z,5.60
2018-08-25T17:58:50.707Z,4.85
2018-08-25T18:01:19.903Z,5.08
2018-08-25T18:03:49.269Z,5.37
2018-08-25T18:06:18.389Z,5.50
2018-08-25T18:08:47.713Z,5.80
2018-08-25T18:11:16.969Z,5.65
2018-08-25T18:13:46.264Z,5.70
2018-08-25T18:16:15.499Z,5.80
2018-08-25T18:18:44.671Z,6.20
2018-08-25T18:21:14.324Z,5.80
2018-08-25T18:23:43.993Z,5.70
2018-08-25T18:26:13.833Z,6.37
2018-08-25T18:28:43.401Z,6.22
2018-08-25T18:31:12.577Z,5.62
2018-08-25T18:33:42.094Z,6.15
2018-08-25T18:36:11.249Z,6.30
2018-08-25T18:38:40.827Z,6.15
2018-08-25T18:41:10.133Z,6.10
2018-08-25T18:43:40.426Z,6.90
2018-08-25T18:46:09.650Z,5.92
2018-08-25T18:48:38.891Z,6.30
2018-08-25T18:51:08.100Z,6.85
2018-08-25T18:53:37.373Z,8.43
2018-08-25T18:56:25.389Z,9.40
2018-08-25T18:58:54.651Z,8.73
2018-08-25T19:01:24.072Z,12.70
2018-08-25T19:03:53.691Z,10.60
2018-08-25T19:06:22.937Z,10.13
2018-08-25T19:08:52.222Z,11.97
2018-08-25T19:11:27.338Z,12.25
2018-08-25T19:13:56.613Z,11.30
2018-08-25T19:16:25.874Z,11.00
2018-08-25T19:18:55.098Z,10.10
2018-08-25T19:21:24.304Z,10.50
2018-08-25T19:26:54.268Z,10.03
2018-08-25T19:29:23.498Z,9.50
2018-08-25T19:45:30.385Z,9.20
2018-08-25T19:47:59.690Z,9.45
2018-08-25T19:50:29.136Z,9.70
2018-08-25T19:52:59.001Z,9.40
2018-08-25T19:55:28.267Z,9.50
2018-08-25T19:58:23.974Z,9.00
2018-08-25T20:05:29.767Z,8.50
2018-08-25T20:08:24.233Z,8.90
2018-08-25T20:10:53.489Z,8.25
2018-08-25T20:13:22.720Z,9.15
2018-08-25T20:21:54.542Z,8.00
2018-08-25T20:24:23.740Z,8.33
2018-08-25T20:26:52.937Z,8.35
2018-08-25T20:29:22.185Z,8.55
2018-08-25T20:34:32.662Z,7.90
2018-08-25T20:37:01.902Z,8.20
2018-08-25T20:39:31.089Z,7.90
2018-08-25T20:42:00.345Z,8.00
2018-08-25T20:44:29.653Z,7.80
2018-08-25T20:46:59.038Z,8.03
2018-08-25T20:49:28.417Z,7.72
2018-08-25T20:51:57.740Z,7.60
2018-08-25T20:55:30.912Z,7.13
2018-08-25T20:58:00.138Z,6.70
2018-08-25T21:00:29.467Z,6.20
2018-08-25T21:03:24.702Z,6.25
2018-08-25T21:05:54.125Z,7.22
2018-08-25T21:08:23.361Z,7.40
2018-08-25T21:10:52.747Z,6.42
2018-08-25T21:13:22.018Z,6.65
2018-08-25T21:15:51.255Z,5.37
2018-08-25T21:18:20.537Z,6.80
2018-08-25T21:20:49.735Z,5.70
2018-08-25T21:23:19.169Z,6.27
2018-08-25T21:25:48.399Z,5.50
2018-08-25T21:28:17.582Z,5.75
2018-08-25T21:33:47.155Z,5.03
2018-08-25T21:36:16.329Z,5.42
2018-08-25T21:38:45.501Z,5.50
2018-08-25T21:41:14.744Z,5.85
2018-08-25T21:43:43.965Z,5.83
2018-08-25T21:46:13.258Z,5.67
2018-08-25T21:48:42.454Z,5.55
2018-08-25T21:51:11.966Z,5.50
2018-08-25T21:53:41.082Z,5.10
2018-08-25T21:56:10.265Z,5.10
2018-08-25T22:01:41.357Z,4.70
2018-08-25T22:04:11.756Z,4.90
2018-08-25T22:06:40.969Z,5.45
2018-08-25T22:09:11.910Z,4.77
2018-08-25T22:11:41.118Z,4.93
2018-08-25T22:14:10.823Z,4.50
2018-08-25T22:16:40.535Z,4.90
2018-08-25T22:19:09.612Z,4.87
2018-08-25T22:21:38.792Z,5.47
2018-08-25T22:24:07.980Z,5.65
2018-08-25T22:26:37.014Z,5.40
2018-08-25T22:29:06.053Z,5.03
2018-08-25T22:31:34.984Z,5.10
2018-08-25T22:34:04.120Z,5.10
2018-08-25T22:36:33.054Z,5.00
2018-08-25T22:39:01.981Z,5.28
2018-08-25T22:41:30.978Z,5.05
2018-08-25T22:43:59.902Z,5.25
2018-08-25T22:46:29.022Z,4.95
2018-08-25T22:48:57.997Z,5.00
2018-08-25T22:51:26.955Z,4.60
2018-08-25T22:56:49.414Z,4.17
2018-08-25T22:59:18.594Z,5.17
2018-08-25T23:01:47.562Z,4.40
2018-08-25T23:04:16.533Z,4.20
2018-08-25T23:06:45.721Z,4.08
2018-08-25T23:09:14.946Z,4.33
2018-08-25T23:11:44.175Z,4.78
2018-08-25T23:14:13.381Z,4.80
2018-08-25T23:16:42.560Z,4.20
2018-08-25T23:19:11.749Z,4.30
2018-08-25T23:21:40.966Z,4.50
2018-08-25T23:24:10.135Z,4.45
2018-08-25T23:26:39.343Z,4.20
2018-08-25T23:29:08.524Z,4.35
2018-08-25T23:31:37.671Z,4.10
2018-08-25T23:34:06.886Z,4.10
2018-08-25T23:36:36.064Z,4.10
2018-08-25T23:39:07.297Z,4.37
2018-08-25T23:41:36.458Z,4.33
2018-08-25T23:44:05.643Z,3.87
2018-08-25T23:46:34.951Z,4.22
2018-08-25T23:49:04.121Z,3.80
2018-08-25T23:51:33.309Z,3.70
2018-08-25T23:54:02.536Z,4.22
2018-08-25T23:56:31.852Z,4.10
2018-08-25T23:59:01.070Z,3.90
